createdAt,value
2023-02-14T00:00:27.780Z,15.60
2023-02-14T00:02:54.786Z,12.10
2023-02-14T00:05:21.478Z,12.60
2023-02-14T00:07:48.291Z,14.60
2023-02-14T00:10:14.990Z,12.87
2023-02-14T00:12:41.625Z,16.17
2023-02-14T00:15:25.568Z,14.00
2023-02-14T00:17:54.757Z,13.80
2023-02-14T00:20:22.297Z,18.53
2023-02-14T00:22:48.852Z,13.10
2023-02-14T00:25:15.859Z,12.57
2023-02-14T00:27:42.490Z,15.13
2023-02-14T00:30:11.261Z,10.50
2023-02-14T00:32:39.412Z,17.93
2023-02-14T00:35:07.635Z,19.27
2023-02-14T00:37:34.525Z,16.43
2023-02-14T00:40:01.002Z,10.63
2023-02-14T00:42:27.605Z,12.77
2023-02-14T00:44:54.074Z,10.10
2023-02-14T00:47:20.565Z,15.20
2023-02-14T00:49:47.080Z,15.07
2023-02-14T00:52:13.547Z,12.80
2023-02-14T00:54:40.049Z,14.53
2023-02-14T00:57:06.615Z,15.87
2023-02-14T00:59:33.213Z,15.53
2023-02-14T01:01:59.744Z,11.10
2023-02-14T01:04:26.213Z,13.73
2023-02-14T01:06:52.731Z,14.77
2023-02-14T01:09:19.310Z,15.27
2023-02-14T01:11:45.874Z,18.50
2023-02-14T01:14:12.354Z,14.30
2023-02-14T01:16:39.734Z,18.67
2023-02-14T01:19:06.327Z,17.13
2023-02-14T01:21:33.624Z,20.27
2023-02-14T01:24:03.042Z,19.40
2023-02-14T01:26:29.981Z,15.50
2023-02-14T01:28:57.265Z,13.90
2023-02-14T01:31:29.113Z,13.87
2023-02-14T01:33:56.210Z,15.23
2023-02-14T01:36:28.868Z,19.20
2023-02-14T01:38:59.103Z,17.73
2023-02-14T01:41:27.255Z,19.57
2023-02-14T01:43:59.882Z,14.10
2023-02-14T01:46:28.742Z,18.27
2023-02-14T01:49:01.329Z,20.30
2023-02-14T01:51:28.650Z,18.47
2023-02-14T01:53:55.702Z,21.10
2023-02-14T01:56:28.863Z,19.17
2023-02-14T01:58:57.852Z,22.03
2023-02-14T02:01:24.693Z,19.47
2023-02-14T02:03:54.745Z,21.53
2023-02-14T02:06:29.057Z,16.00
2023-02-14T02:09:22.461Z,22.37
2023-02-14T02:11:49.032Z,21.97
2023-02-14T02:14:18.887Z,19.20
2023-02-14T02:17:17.371Z,19.47
2023-02-14T02:20:20.368Z,18.67
2023-02-14T02:23:11.714Z,22.53
2023-02-14T02:26:10.344Z,22.80
2023-02-14T02:28:58.092Z,25.27
2023-02-14T02:31:41.436Z,25.53
2023-02-14T02:34:10.990Z,22.70
2023-02-14T02:36:43.092Z,22.97
2023-02-14T02:39:31.163Z,21.87
2023-02-14T02:42:03.545Z,19.87
2023-02-14T02:44:40.185Z,23.83
2023-02-14T02:47:33.855Z,26.00
2023-02-14T02:50:43.504Z,21.23
2023-02-14T02:53:19.792Z,20.77
2023-02-14T02:56:23.700Z,22.93
2023-02-14T02:59:01.063Z,19.17
2023-02-14T03:01:30.926Z,21.97
2023-02-14T03:04:19.269Z,24.90
2023-02-14T03:06:46.120Z,26.77
2023-02-14T03:09:33.530Z,24.83
2023-02-14T03:12:11.329Z,20.20
2023-02-14T03:14:43.101Z,24.03
2023-02-14T03:17:30.622Z,21.03
2023-02-14T03:20:32.329Z,20.60
2023-02-14T03:23:13.326Z,19.83
2023-02-14T03:25:47.754Z,21.30
2023-02-14T03:28:25.334Z,18.37
2023-02-14T03:31:03.589Z,25.10
2023-02-14T03:33:39.675Z,25.00
2023-02-14T03:36:21.387Z,22.73
2023-02-14T03:38:49.060Z,25.03
2023-02-14T03:41:23.399Z,23.47
2023-02-14T03:43:53.390Z,25.03
2023-02-14T03:46:24.704Z,21.27
2023-02-14T03:48:52.941Z,19.77
2023-02-14T03:51:20.737Z,24.43
2023-02-14T03:53:51.026Z,20.33
2023-02-14T03:56:35.068Z,20.07
2023-02-14T03:59:07.790Z,22.47
2023-02-14T04:01:40.652Z,19.87
2023-02-14T04:04:07.714Z,25.47
2023-02-14T04:06:35.273Z,20.93
2023-02-14T04:09:01.900Z,23.87
2023-02-14T04:11:28.470Z,22.83
2023-02-14T04:13:54.952Z,22.40
2023-02-14T04:16:21.566Z,24.63
2023-02-14T04:19:14.471Z,21.67
2023-02-14T04:21:40.994Z,22.80
2023-02-14T04:24:07.633Z,29.37
2023-02-14T04:26:34.279Z,20.63
2023-02-14T04:29:00.882Z,27.17
2023-02-14T04:31:27.480Z,25.93
2023-02-14T04:33:54.199Z,28.50
2023-02-14T04:36:20.898Z,24.17
2023-02-14T04:38:47.441Z,26.53
2023-02-14T04:41:13.924Z,26.50
2023-02-14T04:43:40.468Z,25.83
2023-02-14T04:46:07.069Z,24.00
2023-02-14T04:48:33.577Z,24.10
2023-02-14T04:51:00.381Z,23.10
2023-02-14T04:53:27.063Z,27.87
2023-02-14T04:55:53.638Z,23.80
2023-02-14T04:58:20.246Z,22.50
2023-02-14T05:00:46.796Z,28.07
2023-02-14T05:03:13.404Z,23.90
2023-02-14T05:05:39.876Z,22.20
2023-02-14T05:08:06.483Z,28.00
2023-02-14T05:10:33.130Z,23.97
2023-02-14T05:13:01.179Z,26.40
2023-02-14T05:15:27.748Z,28.33
2023-02-14T05:17:54.224Z,21.43
2023-02-14T05:20:20.913Z,24.37
2023-02-14T05:22:47.452Z,25.27
2023-02-14T05:25:13.949Z,31.27
2023-02-14T05:27:40.606Z,29.93
2023-02-14T05:30:07.738Z,30.23
2023-02-14T05:32:34.429Z,24.97
2023-02-14T05:35:01.360Z,24.87
2023-02-14T05:37:28.082Z,27.00
2023-02-14T05:39:54.659Z,28.13
2023-02-14T05:42:21.498Z,22.50
2023-02-14T05:44:48.729Z,25.70
2023-02-14T05:47:15.588Z,33.63
2023-02-14T05:49:42.049Z,23.20
2023-02-14T05:52:08.718Z,33.17
2023-02-14T05:54:35.266Z,26.87
2023-02-14T05:57:01.857Z,24.57
2023-02-14T05:59:28.331Z,23.07
2023-02-14T06:01:54.944Z,24.97
2023-02-14T06:04:21.497Z,29.10
2023-02-14T06:06:48.053Z,25.67
2023-02-14T06:09:14.852Z,30.30
2023-02-14T06:11:41.428Z,25.97
2023-02-14T06:14:07.899Z,35.93
2023-02-14T06:16:34.467Z,25.87
2023-02-14T06:19:01.169Z,26.57
2023-02-14T06:21:27.710Z,26.83
2023-02-14T06:23:54.380Z,27.93
2023-02-14T06:26:20.905Z,25.13
2023-02-14T06:28:47.544Z,29.57
2023-02-14T06:31:17.687Z,26.33
2023-02-14T06:33:44.347Z,27.23
2023-02-14T06:36:10.945Z,23.60
2023-02-14T06:38:37.596Z,29.30
2023-02-14T06:41:05.444Z,30.43
2023-02-14T06:43:32.642Z,29.43
2023-02-14T06:45:59.146Z,35.90
2023-02-14T06:48:25.838Z,26.23
2023-02-14T06:50:52.574Z,26.10
2023-02-14T06:53:20.134Z,25.73
2023-02-14T06:55:47.220Z,25.87
2023-02-14T06:58:13.828Z,26.33
2023-02-14T07:00:40.419Z,29.53
2023-02-14T07:03:08.071Z,25.97
2023-02-14T07:05:34.773Z,29.10
2023-02-14T07:08:01.575Z,29.23
2023-02-14T07:10:28.194Z,35.97
2023-02-14T07:12:54.723Z,34.47
2023-02-14T07:15:21.791Z,30.00
2023-02-14T07:17:48.272Z,31.23
2023-02-14T07:20:14.929Z,30.93
2023-02-14T08:53:42.239Z,32.27
2023-02-14T08:56:12.925Z,29.83
2023-02-14T08:58:40.011Z,25.37
2023-02-14T09:01:17.068Z,27.67
2023-02-14T09:03:44.469Z,28.07
2023-02-14T09:06:14.029Z,26.50
2023-02-14T09:08:40.802Z,29.53
2023-02-14T09:11:19.858Z,31.17
2023-02-14T09:13:46.817Z,31.30
2023-02-14T09:16:14.566Z,27.33
2023-02-14T09:18:41.149Z,36.77
2023-02-14T09:21:10.214Z,28.43
2023-02-14T09:23:37.332Z,31.00
2023-02-14T09:26:05.806Z,27.93
2023-02-14T09:28:32.667Z,26.70
2023-02-14T09:30:59.910Z,27.47
2023-02-14T09:33:48.218Z,27.50
2023-02-14T09:36:17.511Z,27.30
2023-02-14T09:38:44.044Z,25.33
2023-02-14T09:41:37.659Z,28.80
2023-02-14T09:44:29.563Z,26.97
2023-02-14T09:46:58.001Z,26.03
2023-02-14T09:49:34.059Z,26.53
2023-02-14T09:52:03.575Z,24.30
2023-02-14T09:54:30.958Z,25.93
2023-02-14T09:57:03.108Z,24.90
2023-02-14T09:59:34.847Z,28.93
2023-02-14T10:02:17.669Z,26.13
2023-02-14T10:05:17.202Z,26.33
2023-02-14T10:08:00.158Z,25.20
2023-02-14T10:10:31.003Z,26.73
2023-02-14T10:13:17.281Z,30.23
2023-02-14T10:15:46.790Z,24.87
2023-02-14T10:18:22.840Z,25.80
2023-02-14T10:20:54.790Z,23.90
2023-02-14T10:23:30.726Z,24.17
2023-02-14T10:26:06.440Z,25.77
2023-02-14T10:28:35.600Z,27.47
2023-02-14T10:31:15.043Z,25.50
2023-02-14T10:33:47.389Z,26.03
2023-02-14T10:36:49.724Z,29.10
2023-02-14T10:39:40.415Z,25.70
2023-02-14T10:42:23.063Z,23.50
2023-02-14T10:45:18.662Z,23.00
2023-02-14T10:47:55.027Z,25.13
2023-02-14T10:51:20.201Z,27.87
2023-02-14T10:54:08.302Z,24.63
2023-02-14T10:56:39.922Z,21.73
2023-02-14T10:59:41.889Z,21.93
2023-02-14T11:02:13.646Z,21.27
2023-02-14T11:04:42.172Z,25.67
2023-02-14T11:07:15.853Z,24.43
2023-02-14T11:09:42.427Z,22.03
2023-02-14T11:12:09.460Z,20.20
2023-02-14T11:14:40.156Z,19.70
2023-02-14T11:17:29.398Z,25.03
2023-02-14T11:20:06.747Z,21.60
2023-02-14T11:22:35.349Z,23.53
2023-02-14T11:25:07.778Z,21.97
2023-02-14T11:27:37.824Z,25.40
2023-02-14T11:30:13.570Z,24.43
2023-02-14T11:32:41.255Z,20.30
2023-02-14T11:35:18.206Z,20.80
2023-02-14T11:37:50.230Z,20.30
2023-02-14T11:40:36.167Z,24.40
2023-02-14T11:43:14.259Z,20.73
2023-02-14T11:45:43.359Z,22.07
2023-02-14T11:48:37.735Z,20.00
2023-02-14T11:51:05.135Z,24.50
2023-02-14T11:53:56.355Z,24.20
2023-02-14T11:56:24.334Z,22.63
2023-02-14T11:58:58.207Z,20.80
2023-02-14T12:01:35.698Z,22.10
2023-02-14T12:04:12.067Z,22.93
2023-02-14T12:06:38.918Z,24.77
2023-02-14T12:09:11.384Z,21.77
2023-02-14T12:11:38.179Z,19.77
2023-02-14T12:14:05.892Z,21.73
2023-02-14T12:16:44.012Z,24.50
2023-02-14T12:19:18.603Z,20.00
2023-02-14T12:22:04.545Z,21.87
2023-02-14T12:24:42.271Z,24.27
2023-02-14T12:27:28.464Z,21.30
2023-02-14T12:30:03.364Z,23.07
2023-02-14T12:32:31.488Z,24.53
2023-02-14T12:35:06.171Z,24.40
2023-02-14T12:38:04.309Z,19.67
2023-02-14T12:41:04.486Z,19.27
2023-02-14T12:43:43.140Z,20.43
2023-02-14T12:46:38.569Z,25.13
2023-02-14T12:49:36.018Z,20.93
2023-02-14T12:52:39.389Z,19.63
2023-02-14T12:55:11.830Z,22.17
2023-02-14T12:57:41.262Z,22.03
2023-02-14T13:00:12.645Z,20.43
2023-02-14T13:03:16.244Z,24.73
2023-02-14T13:06:04.340Z,21.63
2023-02-14T13:08:49.467Z,22.83
2023-02-14T13:11:29.117Z,22.73
2023-02-14T13:14:04.616Z,22.83
2023-02-14T13:16:39.794Z,22.13
2023-02-14T13:19:20.200Z,23.43
2023-02-14T13:21:47.199Z,24.00
2023-02-14T13:24:35.380Z,25.27
2023-02-14T13:27:03.241Z,17.63
2023-02-14T13:29:39.352Z,22.73
2023-02-14T13:32:06.302Z,23.03
2023-02-14T13:34:35.428Z,19.17
2023-02-14T13:37:04.132Z,21.20
2023-02-14T13:39:41.951Z,21.73
2023-02-14T13:42:11.859Z,23.93
2023-02-14T13:44:49.161Z,21.53
2023-02-14T13:47:26.169Z,21.10
2023-02-14T13:49:58.490Z,19.77
2023-02-14T13:52:48.140Z,24.57
2023-02-14T13:55:23.752Z,26.27
2023-02-14T13:58:04.303Z,24.30
2023-02-14T14:00:40.762Z,27.30
2023-02-14T14:03:27.732Z,26.77
2023-02-14T14:06:06.342Z,30.23
2023-02-14T14:08:38.262Z,23.73
2023-02-14T14:11:12.045Z,26.90
2023-02-14T14:13:41.901Z,26.10
2023-02-14T14:16:26.732Z,22.90
2023-02-14T14:18:54.119Z,23.90
2023-02-14T14:21:27.461Z,24.90
2023-02-14T14:24:18.048Z,27.07
2023-02-14T14:26:57.526Z,29.27
2023-02-14T14:29:33.631Z,32.07
2023-02-14T14:32:08.873Z,28.43
2023-02-14T14:34:35.391Z,30.37
2023-02-14T14:37:18.996Z,31.57
2023-02-14T14:39:53.931Z,29.97
2023-02-14T14:42:21.954Z,28.20
2023-02-14T14:44:55.201Z,26.57
2023-02-14T14:47:24.404Z,28.87
2023-02-14T14:49:55.642Z,32.20
2023-02-14T14:52:32.330Z,27.10
2023-02-14T14:54:59.912Z,29.60
2023-02-14T14:57:26.774Z,27.20
2023-02-14T15:00:17.566Z,32.27
2023-02-14T15:02:58.904Z,28.30
2023-02-14T15:05:27.686Z,29.17
2023-02-14T15:07:54.225Z,32.17
2023-02-14T15:10:22.857Z,32.63
2023-02-14T15:13:10.354Z,33.67
2023-02-14T15:15:37.121Z,32.03
2023-02-14T15:18:07.776Z,38.90
2023-02-14T15:20:35.290Z,41.73
2023-02-14T15:23:02.911Z,47.80
2023-02-14T15:25:33.232Z,42.17
2023-02-14T15:28:00.342Z,50.23
2023-02-14T15:30:37.712Z,44.47
2023-02-14T15:33:06.481Z,43.00
2023-02-14T15:35:34.697Z,47.13
2023-02-14T15:38:04.593Z,48.33
2023-02-14T15:40:33.294Z,49.17
2023-02-14T15:43:15.259Z,42.27
2023-02-14T15:45:42.747Z,45.33
2023-02-14T15:48:16.068Z,46.63
2023-02-14T15:51:02.353Z,41.23
2023-02-14T15:53:54.164Z,49.63
2023-02-14T15:56:24.991Z,45.57
2023-02-14T15:59:00.759Z,53.00
2023-02-14T16:01:28.348Z,50.00
2023-02-14T16:03:58.543Z,50.77
2023-02-14T16:06:38.314Z,51.50
2023-02-14T16:09:08.092Z,49.17
2023-02-14T16:11:38.930Z,49.03
2023-02-14T16:14:32.516Z,50.77
2023-02-14T16:17:04.840Z,42.47
2023-02-14T16:19:38.463Z,50.73
2023-02-14T16:22:07.131Z,50.40
2023-02-14T16:24:34.530Z,52.57
2023-02-14T16:27:06.771Z,49.03
2023-02-14T16:29:35.459Z,54.57
2023-02-14T16:32:17.410Z,48.00
2023-02-14T16:34:45.587Z,53.13
2023-02-14T16:37:23.055Z,51.47
2023-02-14T16:39:51.538Z,44.43
2023-02-14T16:42:18.672Z,42.83
2023-02-14T16:44:46.212Z,49.87
2023-02-14T16:47:15.237Z,50.23
2023-02-14T16:49:42.072Z,43.83
2023-02-14T16:52:27.165Z,48.23
2023-02-14T16:54:54.026Z,47.23
2023-02-14T16:57:27.827Z,50.30
2023-02-14T16:59:58.006Z,50.87
2023-02-14T17:02:28.308Z,51.93
2023-02-14T17:04:55.349Z,61.47
2023-02-14T17:07:22.268Z,56.43
2023-02-14T17:09:53.563Z,57.67
2023-02-14T17:12:24.712Z,63.10
2023-02-14T17:14:53.989Z,61.10
2023-02-14T17:17:20.703Z,58.93
2023-02-14T17:19:47.401Z,61.93
2023-02-14T17:22:14.995Z,68.77
2023-02-14T17:24:41.745Z,66.47
2023-02-14T17:27:08.572Z,63.03
2023-02-14T17:29:35.248Z,59.43
2023-02-14T17:32:02.355Z,67.43
2023-02-14T17:34:33.442Z,63.17
2023-02-14T17:37:00.005Z,61.33
2023-02-14T17:39:26.840Z,63.83
2023-02-14T17:41:53.522Z,67.47
2023-02-14T17:44:20.212Z,76.63
2023-02-14T17:46:46.918Z,73.37
2023-02-14T17:49:13.694Z,66.27
2023-02-14T17:51:40.235Z,76.53
2023-02-14T17:54:06.870Z,81.73
2023-02-14T17:56:33.534Z,98.97
2023-02-14T17:59:00.133Z,118.43
2023-02-14T18:01:28.545Z,122.00
2023-02-14T18:03:55.667Z,105.73
2023-02-14T18:06:22.467Z,97.63
2023-02-14T18:08:51.765Z,112.07
2023-02-14T18:11:19.825Z,96.37
2023-02-14T18:13:46.642Z,98.40
2023-02-14T18:16:16.130Z,88.90
2023-02-14T18:18:42.766Z,100.60
2023-02-14T18:21:11.052Z,86.43
2023-02-14T18:23:37.925Z,84.23
2023-02-14T18:26:07.498Z,98.57
2023-02-14T18:28:34.918Z,87.87
2023-02-14T18:31:10.646Z,80.77
2023-02-14T18:33:37.782Z,74.60
2023-02-14T18:36:07.400Z,83.63
2023-02-14T18:38:34.692Z,84.80
2023-02-14T18:41:05.609Z,76.93
2023-02-14T18:43:32.357Z,77.03
2023-02-14T18:46:07.603Z,79.33
2023-02-14T18:48:34.871Z,85.73
2023-02-14T18:51:09.442Z,90.17
2023-02-14T18:53:37.014Z,91.37
2023-02-14T18:56:10.136Z,91.83
2023-02-14T18:58:36.821Z,85.37
2023-02-14T19:01:16.988Z,96.50
2023-02-14T19:03:44.199Z,95.97
2023-02-14T19:06:11.945Z,88.57
2023-02-14T19:08:39.676Z,82.90
2023-02-14T19:11:16.393Z,90.83
2023-02-14T19:13:47.402Z,88.60
2023-02-14T19:16:16.500Z,83.90
2023-02-14T19:18:43.457Z,75.23
2023-02-14T19:21:13.682Z,77.67
2023-02-14T19:23:40.565Z,74.73
2023-02-14T19:26:18.678Z,75.53
2023-02-14T19:28:46.407Z,80.53
2023-02-14T19:31:13.231Z,74.87
2023-02-14T19:33:45.514Z,77.67
2023-02-14T19:36:14.453Z,69.63
2023-02-14T19:38:42.973Z,78.73
2023-02-14T19:41:31.252Z,72.40
2023-02-14T19:43:58.905Z,72.40
2023-02-14T19:46:25.945Z,84.33
2023-02-14T19:48:52.640Z,80.33
2023-02-14T19:51:31.505Z,73.40
2023-02-14T19:54:00.321Z,77.30
2023-02-14T19:56:29.667Z,79.17
2023-02-14T19:58:56.605Z,74.03
2023-02-14T20:01:29.885Z,85.13
2023-02-14T20:03:58.172Z,71.07
2023-02-14T20:06:26.312Z,80.20
2023-02-14T20:08:53.171Z,82.50
2023-02-14T20:11:29.845Z,67.63
2023-02-14T20:13:57.906Z,84.00
2023-02-14T20:16:25.718Z,85.53
2023-02-14T20:18:52.593Z,83.23
2023-02-14T20:21:25.509Z,86.43
2023-02-14T20:23:52.397Z,74.63
2023-02-14T20:26:19.366Z,82.73
2023-02-14T20:28:46.352Z,76.80
2023-02-14T20:31:15.095Z,86.83
2023-02-14T20:33:41.980Z,71.33
2023-02-14T20:36:08.836Z,81.60
2023-02-14T20:38:35.467Z,75.17
2023-02-14T20:41:09.443Z,78.37
2023-02-14T20:43:36.351Z,80.80
2023-02-14T20:46:04.290Z,84.17
2023-02-14T20:48:31.565Z,92.63
2023-02-14T20:50:58.433Z,77.80
2023-02-14T20:53:25.084Z,83.40
2023-02-14T20:55:52.736Z,90.00
2023-02-14T20:58:22.248Z,93.80
2023-02-14T21:00:49.023Z,85.30
2023-02-14T21:03:15.522Z,98.83
2023-02-14T21:05:42.300Z,107.70
2023-02-14T21:08:08.738Z,114.13
2023-02-14T21:10:35.201Z,99.27
2023-02-14T21:13:01.743Z,90.57
2023-02-14T21:15:28.278Z,98.00
2023-02-14T21:17:54.886Z,94.67
2023-02-14T21:20:21.456Z,99.97
2023-02-14T21:22:47.977Z,103.50
2023-02-14T21:25:14.556Z,101.30
2023-02-14T21:27:41.339Z,94.57
2023-02-14T21:30:08.512Z,99.50
2023-02-14T21:32:35.033Z,96.83
2023-02-14T21:35:01.516Z,97.73
2023-02-14T21:37:27.975Z,117.70
2023-02-14T21:39:54.441Z,103.20
2023-02-14T21:42:21.212Z,98.80
2023-02-14T21:45:06.403Z,104.90
2023-02-14T21:47:36.986Z,102.97
2023-02-14T21:50:22.473Z,97.00
2023-02-14T21:52:49.008Z,95.67
2023-02-14T21:55:16.076Z,89.13
2023-02-14T21:57:42.549Z,96.83
2023-02-14T22:00:09.607Z,98.97
2023-02-14T22:02:38.175Z,101.10
2023-02-14T22:05:05.141Z,93.07
2023-02-14T22:07:31.784Z,92.47
2023-02-14T22:09:58.253Z,89.77
2023-02-14T22:12:24.779Z,85.03
2023-02-14T22:14:51.516Z,98.80
2023-02-14T22:17:18.209Z,94.40
2023-02-14T22:19:44.872Z,93.17
2023-02-14T22:22:11.519Z,93.07
2023-02-14T22:24:38.055Z,97.00
2023-02-14T22:27:04.566Z,97.53
2023-02-14T22:29:31.033Z,89.97
2023-02-14T22:31:57.983Z,91.40
2023-02-14T22:34:25.007Z,100.90
2023-02-14T22:36:51.593Z,98.30
2023-02-14T22:39:18.273Z,88.17
2023-02-14T22:41:44.890Z,84.23
2023-02-14T22:44:12.403Z,89.40
2023-02-14T22:46:39.261Z,90.57
2023-02-14T22:49:06.495Z,86.63
2023-02-14T22:51:34.489Z,91.17
2023-02-14T22:54:20.700Z,82.77
2023-02-14T22:56:49.066Z,87.57
2023-02-14T22:59:18.035Z,91.53
2023-02-14T23:01:45.233Z,82.07
2023-02-14T23:04:12.007Z,79.30
2023-02-14T23:06:39.004Z,87.47
2023-02-14T23:09:07.570Z,87.63
2023-02-14T23:11:36.017Z,83.27
2023-02-14T23:14:21.402Z,88.67
2023-02-14T23:17:06.576Z,83.03
2023-02-14T23:19:52.989Z,83.30
2023-02-14T23:22:25.344Z,87.80
2023-02-14T23:24:54.074Z,81.47
2023-02-14T23:27:22.762Z,73.93
2023-02-14T23:29:49.440Z,75.77
2023-02-14T23:32:16.345Z,81.30
2023-02-14T23:34:44.319Z,81.13
2023-02-14T23:37:12.055Z,86.33
2023-02-14T23:39:38.557Z,81.33
2023-02-14T23:42:10.702Z,73.37
2023-02-14T23:44:37.454Z,76.17
2023-02-14T23:47:05.849Z,75.70
2023-02-14T23:49:33.539Z,76.30
2023-02-14T23:52:00.138Z,78.27
2023-02-14T23:54:26.751Z,75.50
2023-02-14T23:56:54.087Z,68.27
2023-02-14T23:59:21.563Z,73.67
